createdAt,value
2023-01-25T00:01:27.802Z,103365.00
2023-01-25T00:03:54.255Z,103357.69
2023-01-25T00:06:20.606Z,103352.72
2023-01-25T00:08:50.216Z,103347.53
2023-01-25T00:11:17.103Z,103335.28
2023-01-25T00:13:43.574Z,103338.91
2023-01-25T00:16:09.963Z,103328.16
2023-01-25T00:18:36.322Z,103320.28
2023-01-25T00:21:15.211Z,103323.94
2023-01-25T00:23:41.544Z,103320.44
2023-01-25T00:26:07.899Z,103323.31
2023-01-25T00:28:34.221Z,103318.34
2023-01-25T00:31:01.051Z,103308.94
2023-01-25T00:33:27.323Z,103307.41
2023-01-25T00:35:56.453Z,103296.66
2023-01-25T00:38:27.471Z,103291.50
2023-01-25T00:40:53.835Z,103276.34
2023-01-25T00:43:20.154Z,103275.59
2023-01-25T00:45:46.585Z,103274.84
2023-01-25T00:48:12.923Z,103258.16
2023-01-25T00:50:39.328Z,103245.13
2023-01-25T00:53:05.667Z,103242.25
2023-01-25T00:55:32.045Z,103243.75
2023-01-25T00:57:58.374Z,103238.75
2023-01-25T01:00:24.846Z,103234.53
2023-01-25T01:02:51.201Z,103231.66
2023-01-25T01:05:17.621Z,103242.56
2023-01-25T01:07:44.002Z,103231.84
2023-01-25T01:10:12.078Z,103236.81
2023-01-25T01:12:38.408Z,103242.56
2023-01-25T01:15:07.577Z,103249.69
2023-01-25T01:17:34.584Z,103246.06
2023-01-25T01:20:00.909Z,103249.69
2023-01-25T01:22:27.267Z,103256.81
2023-01-25T01:24:53.617Z,103258.16
2023-01-25T01:27:19.972Z,103253.75
2023-01-25T01:29:46.310Z,103247.22
2023-01-25T01:32:12.868Z,103237.81
2023-01-25T01:34:39.284Z,103240.69
2023-01-25T01:37:05.612Z,103243.56
2023-01-25T01:39:31.975Z,103242.25
2023-01-25T01:41:58.311Z,103240.13
2023-01-25T01:44:43.453Z,103239.53
2023-01-25T01:47:12.022Z,103235.28
2023-01-25T01:49:38.355Z,103228.03
2023-01-25T01:52:12.626Z,103228.03
2023-01-25T01:54:44.063Z,103225.16
2023-01-25T01:57:32.315Z,103227.25
2023-01-25T02:00:00.157Z,103225.72
2023-01-25T02:02:26.592Z,103232.25
2023-01-25T02:04:53.383Z,103232.81
2023-01-25T02:07:21.464Z,103227.69
2023-01-25T02:09:48.112Z,103230.56
2023-01-25T02:12:14.451Z,103226.13
2023-01-25T02:14:41.679Z,103233.44
2023-01-25T02:17:09.811Z,103220.38
2023-01-25T02:20:08.532Z,103227.69
2023-01-25T02:22:44.371Z,103223.44
2023-01-25T02:25:11.007Z,103219.22
2023-01-25T02:27:38.663Z,103219.97
2023-01-25T02:30:05.262Z,103219.38
2023-01-25T02:32:31.961Z,103216.50
2023-01-25T02:34:58.369Z,103206.16
2023-01-25T02:37:24.705Z,103211.91
2023-01-25T02:39:51.249Z,103209.78
2023-01-25T02:42:17.612Z,103202.53
2023-01-25T02:44:44.334Z,103204.66
2023-01-25T02:47:10.682Z,103194.47
2023-01-25T02:49:38.605Z,103195.84
2023-01-25T02:52:07.133Z,103202.94
2023-01-25T02:54:33.535Z,103198.56
2023-01-25T02:57:03.333Z,103199.31
2023-01-25T02:59:38.816Z,103200.06
2023-01-25T03:02:05.217Z,103195.84
2023-01-25T03:04:31.660Z,103196.59
2023-01-25T03:06:58.457Z,103198.91
2023-01-25T03:09:27.158Z,103187.38
2023-01-25T03:11:53.553Z,103184.50
2023-01-25T03:14:22.121Z,103188.13
2023-01-25T03:16:49.238Z,103190.25
2023-01-25T03:19:18.149Z,103181.63
2023-01-25T03:21:44.539Z,103180.09
2023-01-25T03:24:11.348Z,103176.47
2023-01-25T03:27:01.863Z,103174.16
2023-01-25T03:29:36.353Z,103169.78
2023-01-25T03:32:06.062Z,103169.03
2023-01-25T03:34:32.495Z,103166.72
2023-01-25T03:36:59.678Z,103166.72
2023-01-25T03:39:26.065Z,103169.44
2023-01-25T03:41:52.460Z,103168.69
2023-01-25T03:44:19.000Z,103163.69
2023-01-25T03:46:46.630Z,103162.91
2023-01-25T03:49:13.153Z,103166.72
2023-01-25T03:51:39.793Z,103156.75
2023-01-25T03:54:08.335Z,103154.03
2023-01-25T03:56:35.924Z,103155.56
2023-01-25T03:59:10.210Z,103150.56
2023-01-25T04:01:36.761Z,103142.09
2023-01-25T04:04:03.099Z,103137.84
2023-01-25T04:06:29.568Z,103137.25
2023-01-25T04:08:56.398Z,103134.38
2023-01-25T04:11:24.958Z,103128.63
2023-01-25T04:13:51.375Z,103130.16
2023-01-25T04:16:20.272Z,103130.16
2023-01-25T04:19:00.994Z,103117.13
2023-01-25T04:21:29.159Z,103116.38
2023-01-25T04:23:55.781Z,103110.59
2023-01-25T04:26:22.235Z,103108.47
2023-01-25T04:28:54.074Z,103111.34
2023-01-25T04:31:20.745Z,103105.59
2023-01-25T04:33:49.492Z,103099.09
2023-01-25T04:36:18.494Z,103105.59
2023-01-25T04:38:44.866Z,103106.34
2023-01-25T04:41:11.673Z,103104.25
2023-01-25T04:43:38.281Z,103095.63
2023-01-25T04:46:09.228Z,103094.84
2023-01-25T04:48:35.609Z,103082.56
2023-01-25T04:51:04.933Z,103089.69
2023-01-25T04:53:32.635Z,103076.81
2023-01-25T04:56:00.966Z,103082.56
2023-01-25T04:58:31.280Z,103073.94
2023-01-25T05:01:01.542Z,103071.06
2023-01-25T05:03:28.301Z,103071.06
2023-01-25T05:05:54.665Z,103076.25
2023-01-25T05:08:23.738Z,103075.63
2023-01-25T05:10:52.700Z,103064.09
2023-01-25T05:13:37.717Z,103064.91
2023-01-25T05:16:13.303Z,103064.09
2023-01-25T05:18:48.490Z,103057.00
2023-01-25T05:21:38.611Z,103057.75
2023-01-25T05:24:05.263Z,103049.72
2023-01-25T05:26:51.851Z,103053.38
2023-01-25T05:29:18.305Z,103056.84
2023-01-25T05:31:56.292Z,103045.34
2023-01-25T05:34:22.755Z,103053.22
2023-01-25T05:36:49.280Z,103053.22
2023-01-25T05:39:16.246Z,103052.59
2023-01-25T05:41:44.224Z,103052.59
2023-01-25T05:44:11.368Z,103057.59
2023-01-25T05:46:40.181Z,103059.88
2023-01-25T05:49:06.879Z,103048.38
2023-01-25T05:51:33.568Z,103046.84
2023-01-25T05:54:01.383Z,103047.63
2023-01-25T05:56:28.027Z,103049.72
2023-01-25T05:58:54.662Z,103036.69
2023-01-25T06:01:21.383Z,103038.81
2023-01-25T06:03:52.459Z,103033.81
2023-01-25T06:06:18.872Z,103025.19
2023-01-25T06:08:45.712Z,103030.34
2023-01-25T06:11:13.144Z,103026.84
2023-01-25T06:13:43.176Z,103036.88
2023-01-25T06:16:09.607Z,103038.88
2023-01-25T06:18:56.944Z,103036.53
2023-01-25T06:21:44.740Z,103039.09
2023-01-25T06:24:11.181Z,103030.88
2023-01-25T06:26:37.594Z,103035.44
2023-01-25T06:29:34.939Z,103033.84
2023-01-25T06:32:02.518Z,103031.09
2023-01-25T06:34:29.046Z,103034.81
2023-01-25T06:36:55.547Z,103046.25
2023-01-25T06:39:21.880Z,103035.19
2023-01-25T06:41:48.199Z,103033.09
2023-01-25T06:44:14.533Z,103032.44
2023-01-25T06:46:41.052Z,103032.88
2023-01-25T06:49:07.398Z,103025.06
2023-01-25T06:51:33.720Z,103027.28
2023-01-25T06:57:18.072Z,103025.25
2023-01-25T06:59:44.403Z,103016.19
2023-01-25T07:02:14.280Z,103008.16
2023-01-25T07:04:40.627Z,103000.13
2023-01-25T07:07:09.777Z,103000.31
2023-01-25T07:09:36.136Z,102991.22
2023-01-25T07:12:04.615Z,102994.41
2023-01-25T07:14:31.183Z,103002.22
2023-01-25T07:16:57.560Z,102996.03
2023-01-25T07:19:23.916Z,102989.56
2023-01-25T07:21:50.286Z,102997.13
2023-01-25T07:24:17.236Z,102986.84
2023-01-25T07:26:43.634Z,102986.84
2023-01-25T07:29:13.815Z,102981.38
2023-01-25T07:31:40.210Z,102990.03
2023-01-25T07:34:07.122Z,102980.94
2023-01-25T07:36:33.649Z,102984.72
2023-01-25T07:39:00.007Z,102977.47
2023-01-25T07:41:26.382Z,102978.22
2023-01-25T07:43:52.719Z,102985.03
2023-01-25T07:46:29.212Z,102971.09
2023-01-25T07:48:55.768Z,102967.16
2023-01-25T07:51:22.847Z,102964.13
2023-01-25T07:53:52.161Z,102963.97
2023-01-25T07:56:19.311Z,102963.19
2023-01-25T07:58:45.776Z,102969.13
2023-01-25T08:01:16.143Z,102962.25
2023-01-25T08:03:43.953Z,102955.31
2023-01-25T08:06:10.980Z,102951.53
2023-01-25T08:08:38.748Z,102957.75
2023-01-25T08:11:09.242Z,102951.09
2023-01-25T08:13:35.592Z,102954.13
2023-01-25T08:16:01.995Z,102951.84
2023-01-25T08:18:28.438Z,102949.47
2023-01-25T08:20:57.315Z,102938.22
2023-01-25T08:23:24.827Z,102949.72
2023-01-25T08:25:51.207Z,102946.34
2023-01-25T08:28:17.576Z,102940.88
2023-01-25T08:30:56.497Z,102948.44
2023-01-25T08:33:23.789Z,102948.28
2023-01-25T08:35:59.165Z,102945.25
2023-01-25T08:38:25.503Z,102945.09
2023-01-25T08:40:51.953Z,102950.69
2023-01-25T08:43:18.409Z,102939.16
2023-01-25T08:45:44.970Z,102936.13
2023-01-25T08:48:15.439Z,102934.75
2023-01-25T08:50:47.735Z,102926.91
2023-01-25T08:53:14.084Z,102934.75
2023-01-25T08:55:42.818Z,102929.31
2023-01-25T08:58:13.149Z,102925.09
2023-01-25T09:00:39.585Z,102927.97
2023-01-25T09:03:06.635Z,102925.69
2023-01-25T09:05:39.138Z,102923.41
2023-01-25T09:08:06.905Z,102923.25
2023-01-25T09:10:37.576Z,102923.25
2023-01-25T09:13:03.915Z,102927.50
2023-01-25T09:15:30.246Z,102924.78
2023-01-25T09:17:56.649Z,102914.59
2023-01-25T09:20:23.061Z,102923.25
2023-01-25T09:22:49.389Z,102926.13
2023-01-25T09:25:15.763Z,102929.00
2023-01-25T09:27:42.108Z,102923.25
2023-01-25T09:30:13.449Z,102918.13
2023-01-25T09:32:43.388Z,102921.66
2023-01-25T09:35:09.789Z,102911.66
2023-01-25T09:37:36.165Z,102914.81
2023-01-25T09:40:03.892Z,102916.19
2023-01-25T09:42:32.609Z,102908.47
2023-01-25T09:45:12.695Z,102897.69
2023-01-25T09:47:49.920Z,102897.69
2023-01-25T09:50:33.151Z,102888.75
2023-01-25T09:53:04.643Z,102892.06
2023-01-25T09:55:30.985Z,102887.06
2023-01-25T09:58:00.172Z,102890.09
2023-01-25T10:00:32.140Z,102885.84
2023-01-25T10:03:07.643Z,102882.06
2023-01-25T10:05:37.133Z,102881.63
2023-01-25T10:08:08.483Z,102868.28
2023-01-25T10:10:42.132Z,102879.19
2023-01-25T10:13:11.505Z,102876.28
2023-01-25T10:15:39.484Z,102865.53
2023-01-25T10:18:21.042Z,102857.34
2023-01-25T10:20:49.390Z,102854.31
2023-01-25T10:23:24.808Z,102853.38
2023-01-25T10:25:56.869Z,102850.66
2023-01-25T10:28:25.867Z,102850.97
2023-01-25T10:30:56.930Z,102840.97
2023-01-25T10:33:23.331Z,102845.22
2023-01-25T10:35:49.823Z,102854.03
2023-01-25T10:38:20.595Z,102834.59
2023-01-25T10:40:48.703Z,102829.44
2023-01-25T10:43:18.567Z,102821.69
2023-01-25T10:45:44.908Z,102817.31
2023-01-25T10:48:12.581Z,102820.19
2023-01-25T10:50:38.910Z,102819.75
2023-01-25T10:53:05.299Z,102809.44
2023-01-25T10:55:31.645Z,102810.34
2023-01-25T10:57:58.064Z,102807.47
2023-01-25T11:00:29.239Z,102806.69
2023-01-25T11:02:56.701Z,102801.22
2023-01-25T11:05:36.038Z,102792.59
2023-01-25T11:08:21.165Z,102793.00
2023-01-25T11:10:47.487Z,102783.16
2023-01-25T11:13:13.757Z,102790.75
2023-01-25T11:15:40.560Z,102780.59
2023-01-25T11:18:07.290Z,102776.03
2023-01-25T11:20:33.676Z,102778.13
2023-01-25T11:23:00.019Z,102767.19
2023-01-25T11:25:27.383Z,102765.06
2023-01-25T11:28:09.523Z,102764.91
2023-01-25T11:30:35.886Z,102748.13
2023-01-25T11:33:02.228Z,102752.22
2023-01-25T11:35:31.879Z,102759.97
2023-01-25T11:38:08.622Z,102749.50
2023-01-25T11:40:38.522Z,102746.03
2023-01-25T11:43:23.858Z,102734.03
2023-01-25T11:45:53.189Z,102717.91
2023-01-25T11:48:19.483Z,102711.56
2023-01-25T11:50:47.358Z,102707.66
2023-01-25T11:53:23.873Z,102709.47
2023-01-25T11:55:54.464Z,102701.59
2023-01-25T11:58:36.284Z,102696.84
2023-01-25T12:01:11.128Z,102686.53
2023-01-25T12:03:37.437Z,102683.38
2023-01-25T12:06:17.770Z,102683.38
2023-01-25T12:09:02.621Z,102679.84
2023-01-25T12:11:35.060Z,102673.97
2023-01-25T12:14:05.520Z,102668.81
2023-01-25T12:16:44.702Z,102653.63
2023-01-25T12:19:29.847Z,102647.88
2023-01-25T12:22:14.713Z,102633.13
2023-01-25T12:24:52.142Z,102627.22
2023-01-25T12:27:44.858Z,102632.53
2023-01-25T12:30:11.574Z,102622.50
2023-01-25T12:32:39.527Z,102609.63
2023-01-25T12:35:24.756Z,102610.97
2023-01-25T12:37:51.270Z,102612.22
2023-01-25T12:40:18.695Z,102615.38
2023-01-25T12:42:47.821Z,102595.38
2023-01-25T12:45:18.793Z,102593.75
2023-01-25T12:47:49.600Z,102583.69
2023-01-25T12:50:15.846Z,102586.00
2023-01-25T12:53:02.411Z,102590.06
2023-01-25T12:55:28.768Z,102589.16
2023-01-25T12:58:11.478Z,102582.63
2023-01-25T13:00:51.952Z,102579.25
2023-01-25T13:03:33.701Z,102572.59
2023-01-25T13:06:03.008Z,102579.97
2023-01-25T13:08:37.511Z,102578.97
2023-01-25T13:11:07.963Z,102570.97
2023-01-25T13:13:34.699Z,102570.03
2023-01-25T13:16:21.026Z,102568.97
2023-01-25T13:18:47.384Z,102563.06
2023-01-25T13:21:33.570Z,102557.31
2023-01-25T13:24:18.810Z,102554.06
2023-01-25T13:26:54.112Z,102551.81
2023-01-25T13:29:35.673Z,102548.13
2023-01-25T13:32:02.458Z,102542.22
2023-01-25T13:34:35.664Z,102539.66
2023-01-25T13:37:20.770Z,102546.53
2023-01-25T13:39:56.521Z,102535.75
2023-01-25T13:42:23.827Z,102536.38
2023-01-25T13:44:51.871Z,102535.47
2023-01-25T13:47:44.762Z,102522.59
2023-01-25T13:50:14.115Z,102513.47
2023-01-25T13:52:41.663Z,102504.69
2023-01-25T13:55:16.617Z,102502.84
2023-01-25T13:57:42.993Z,102509.56
2023-01-25T14:00:14.537Z,102518.75
2023-01-25T14:02:41.951Z,102515.88
2023-01-25T14:05:24.514Z,102512.50
2023-01-25T14:07:51.387Z,102496.84
2023-01-25T14:10:23.588Z,102493.88
2023-01-25T14:12:50.637Z,102492.47
2023-01-25T14:15:21.429Z,102498.09
2023-01-25T14:18:03.906Z,102496.75
2023-01-25T14:20:30.307Z,102498.72
2023-01-25T14:22:56.666Z,102481.91
2023-01-25T14:25:25.449Z,102481.09
2023-01-25T14:27:53.129Z,102473.13
2023-01-25T14:30:20.889Z,102477.94
2023-01-25T14:32:47.419Z,102492.19
2023-01-25T14:35:36.058Z,102483.69
2023-01-25T14:38:23.287Z,102467.13
2023-01-25T14:40:49.781Z,102466.19
2023-01-25T14:43:16.476Z,102460.38
2023-01-25T14:45:42.836Z,102460.22
2023-01-25T14:48:28.096Z,102458.38
2023-01-25T14:51:01.591Z,102451.88
2023-01-25T14:53:27.937Z,102443.06
2023-01-25T14:55:54.258Z,102453.09
2023-01-25T14:58:21.480Z,102440.84
2023-01-25T15:00:54.034Z,102432.78
2023-01-25T15:03:22.409Z,102434.78
2023-01-25T15:05:48.741Z,102432.66
2023-01-25T15:08:15.922Z,102426.91
2023-01-25T15:10:52.040Z,102420.91
2023-01-25T15:13:22.401Z,102413.50
2023-01-25T15:15:57.698Z,102419.09
2023-01-25T15:18:40.472Z,102416.28
2023-01-25T15:21:13.438Z,102404.50
2023-01-25T15:23:46.096Z,102421.81
2023-01-25T15:26:36.481Z,102414.31
2023-01-25T15:29:15.136Z,102401.50
2023-01-25T15:31:41.674Z,102401.75
2023-01-25T15:34:13.372Z,102399.19
2023-01-25T15:36:39.773Z,102396.13
2023-01-25T15:39:06.875Z,102398.13
2023-01-25T15:41:33.244Z,102405.81
2023-01-25T15:44:01.332Z,102401.38
2023-01-25T15:46:27.968Z,102391.28
2023-01-25T15:48:54.284Z,102396.66
2023-01-25T15:51:20.665Z,102398.94
2023-01-25T15:53:47.162Z,102394.31
2023-01-25T15:56:14.808Z,102392.69
2023-01-25T15:58:41.983Z,102395.31
2023-01-25T16:01:08.381Z,102387.94
2023-01-25T16:03:34.727Z,102386.78
2023-01-25T16:06:01.793Z,102380.59
2023-01-25T16:08:28.193Z,102376.97
2023-01-25T16:10:54.529Z,102370.19
2023-01-25T16:13:22.092Z,102374.19
2023-01-25T16:15:48.922Z,102364.16
2023-01-25T16:18:15.260Z,102357.63
2023-01-25T16:20:41.653Z,102348.38
2023-01-25T16:23:08.429Z,102353.88
2023-01-25T16:25:34.786Z,102350.84
2023-01-25T16:28:01.120Z,102349.50
2023-01-25T16:30:29.208Z,102343.63
2023-01-25T16:32:55.608Z,102341.63
2023-01-25T16:35:21.931Z,102342.63
2023-01-25T16:37:48.272Z,102335.59
2023-01-25T16:40:24.581Z,102336.09
2023-01-25T16:42:51.032Z,102333.06
2023-01-25T16:45:19.276Z,102325.78
2023-01-25T16:47:46.604Z,102324.06
2023-01-25T16:50:13.649Z,102322.28
2023-01-25T16:52:43.443Z,102326.03
2023-01-25T16:55:11.078Z,102322.47
2023-01-25T16:57:37.882Z,102313.56
2023-01-25T17:00:05.270Z,102304.91
2023-01-25T17:02:31.596Z,102306.28
2023-01-25T17:04:57.948Z,102308.75
2023-01-25T17:07:24.271Z,102305.97
2023-01-25T17:09:50.608Z,102309.44
2023-01-25T17:12:16.927Z,102295.44
2023-01-25T17:14:43.350Z,102295.44
2023-01-25T17:17:09.674Z,102303.97
2023-01-25T17:19:36.025Z,102295.94
2023-01-25T17:22:03.277Z,102292.44
2023-01-25T17:24:29.613Z,102285.09
2023-01-25T17:26:56.036Z,102282.63
2023-01-25T17:29:22.634Z,102280.72
2023-01-25T17:31:49.022Z,102279.94
2023-01-25T17:34:18.081Z,102284.81
2023-01-25T17:36:44.469Z,102274.81
2023-01-25T17:39:11.204Z,102287.81
2023-01-25T17:41:37.527Z,102272.81
2023-01-25T17:44:03.863Z,102258.28
2023-01-25T17:46:32.984Z,102255.53
2023-01-25T17:49:01.906Z,102255.66
2023-01-25T17:51:28.303Z,102246.50
2023-01-25T17:53:54.677Z,102260.03
2023-01-25T17:56:21.043Z,102248.22
2023-01-25T17:58:47.403Z,102255.13
2023-01-25T18:01:17.936Z,102255.88
2023-01-25T18:03:44.507Z,102243.22
2023-01-25T18:06:11.267Z,102245.19
2023-01-25T18:08:40.845Z,102242.94
2023-01-25T18:11:10.725Z,102241.44
2023-01-25T18:13:40.741Z,102238.69
2023-01-25T18:16:07.511Z,102243.09
2023-01-25T18:18:33.866Z,102234.31
2023-01-25T18:21:13.081Z,102240.19
2023-01-25T18:23:39.465Z,102221.53
2023-01-25T18:26:06.457Z,102218.50
2023-01-25T18:28:32.787Z,102222.16
2023-01-25T18:30:59.693Z,102224.16
2023-01-25T18:33:26.282Z,102227.66
2023-01-25T18:35:53.896Z,102225.41
2023-01-25T18:38:20.321Z,102235.41
2023-01-25T18:40:46.865Z,102227.41
2023-01-25T18:43:17.016Z,102227.41
2023-01-25T18:45:43.552Z,102223.78
2023-01-25T18:48:13.116Z,102222.38
2023-01-25T18:50:39.975Z,102222.38
2023-01-25T18:53:07.192Z,102215.38
2023-01-25T18:55:33.521Z,102206.09
2023-01-25T18:58:04.022Z,102209.59
2023-01-25T19:00:33.629Z,102202.34
2023-01-25T19:03:00.252Z,102197.34
2023-01-25T19:05:26.657Z,102190.81
2023-01-25T19:07:52.980Z,102186.31
2023-01-25T19:10:19.329Z,102186.19
2023-01-25T19:12:45.667Z,102182.56
2023-01-25T19:15:12.099Z,102184.53
2023-01-25T19:17:38.570Z,102178.78
2023-01-25T19:20:05.251Z,102182.44
2023-01-25T19:22:31.634Z,102172.41
2023-01-25T19:24:57.970Z,102164.50
2023-01-25T19:27:24.538Z,102169.03
2023-01-25T19:29:51.455Z,102177.69
2023-01-25T19:32:17.783Z,102176.16
2023-01-25T19:34:44.109Z,102148.88
2023-01-25T19:37:10.437Z,102147.25
2023-01-25T19:39:37.018Z,102133.03
2023-01-25T19:42:03.376Z,102140.22
2023-01-25T19:44:29.706Z,102142.72
2023-01-25T19:46:56.028Z,102134.47
2023-01-25T19:49:22.407Z,102123.44
2023-01-25T19:51:52.867Z,102125.56
2023-01-25T19:54:19.566Z,102120.56
2023-01-25T19:56:46.479Z,102114.06
2023-01-25T19:59:15.551Z,102112.53
2023-01-25T20:01:43.894Z,102115.81
2023-01-25T20:04:13.891Z,102097.91
2023-01-25T20:06:40.257Z,102105.03
2023-01-25T20:09:06.580Z,102096.38
2023-01-25T20:11:32.950Z,102099.13
2023-01-25T20:14:00.000Z,102097.91
2023-01-25T20:16:27.262Z,102103.88
2023-01-25T20:18:53.621Z,102103.28
2023-01-25T20:21:20.535Z,102102.41
2023-01-25T20:23:47.593Z,102095.03
2023-01-25T20:26:17.721Z,102080.63
2023-01-25T20:28:44.400Z,102086.38
2023-01-25T20:31:26.152Z,102093.63
2023-01-25T20:33:53.107Z,102090.63
2023-01-25T20:36:19.445Z,102085.09
2023-01-25T20:38:45.927Z,102080.34
2023-01-25T20:41:15.957Z,102087.75
2023-01-25T20:43:46.015Z,102086.38
2023-01-25T20:46:12.390Z,102086.38
2023-01-25T20:48:38.729Z,102078.47
2023-01-25T20:51:05.779Z,102070.59
2023-01-25T20:53:33.087Z,102070.59
2023-01-25T20:55:59.992Z,102080.47
2023-01-25T20:58:26.637Z,102084.72
2023-01-25T21:00:52.996Z,102081.84
2023-01-25T21:03:19.382Z,102078.84
2023-01-25T21:05:49.419Z,102074.59
2023-01-25T21:08:15.740Z,102081.84
2023-01-25T21:10:46.430Z,102069.59
2023-01-25T21:13:12.758Z,102073.84
2023-01-25T21:15:39.147Z,102077.47
2023-01-25T21:18:05.516Z,102069.59
2023-01-25T21:20:31.844Z,102068.84
2023-01-25T21:22:58.216Z,102068.09
2023-01-25T21:25:24.533Z,102063.69
2023-01-25T21:27:50.896Z,102061.44
2023-01-25T21:30:17.347Z,102052.78
2023-01-25T21:32:44.111Z,102042.66
2023-01-25T21:35:10.714Z,102032.53
2023-01-25T21:37:37.190Z,102034.03
2023-01-25T21:40:03.516Z,102038.28
2023-01-25T21:42:32.205Z,102032.53
2023-01-25T21:45:17.520Z,102033.16
2023-01-25T21:47:43.852Z,102019.50
2023-01-25T21:50:29.206Z,102025.13
2023-01-25T21:52:55.572Z,102020.75
2023-01-25T21:55:21.906Z,102028.00
2023-01-25T21:57:48.916Z,102031.53
2023-01-25T22:00:16.168Z,102017.75
2023-01-25T22:02:42.965Z,102021.97
2023-01-25T22:05:09.332Z,102023.50
2023-01-25T22:07:35.673Z,102023.50
2023-01-25T22:10:02.008Z,102022.75
2023-01-25T22:12:28.347Z,102017.63
2023-01-25T22:14:54.723Z,102009.22
2023-01-25T22:17:22.510Z,102004.34
2023-01-25T22:19:48.859Z,102015.25
2023-01-25T22:22:15.232Z,102003.72
2023-01-25T22:24:41.576Z,102004.34
2023-01-25T22:27:07.845Z,101997.72
2023-01-25T22:29:34.193Z,102001.97
2023-01-25T22:32:00.542Z,101993.97
2023-01-25T22:34:26.881Z,101998.94
2023-01-25T22:36:53.297Z,101994.44
2023-01-25T22:39:19.623Z,101997.47
2023-01-25T22:41:45.955Z,101991.69
2023-01-25T22:44:14.416Z,101984.44
2023-01-25T22:46:40.791Z,101991.56
2023-01-25T22:49:07.617Z,101993.72
2023-01-25T22:51:33.941Z,101985.81
2023-01-25T22:54:00.288Z,101986.56
2023-01-25T22:56:31.727Z,101983.69
2023-01-25T22:58:58.186Z,101972.16
2023-01-25T23:01:25.267Z,101971.41
2023-01-25T23:03:51.592Z,101977.19
2023-01-25T23:06:19.003Z,101967.78
2023-01-25T23:08:45.332Z,101964.16
2023-01-25T23:11:12.627Z,101966.19
2023-01-25T23:13:39.871Z,101970.53
2023-01-25T23:16:06.911Z,101959.66
2023-01-25T23:18:51.450Z,101958.28
2023-01-25T23:21:18.523Z,101951.66
2023-01-25T23:23:44.878Z,101957.41
2023-01-25T23:26:11.206Z,101946.66
2023-01-25T23:28:37.611Z,101946.66
2023-01-25T23:31:17.186Z,101951.66
2023-01-25T23:33:59.505Z,101945.25
2023-01-25T23:36:26.507Z,101938.13
2023-01-25T23:38:52.823Z,101945.25
2023-01-25T23:41:19.371Z,101936.63
2023-01-25T23:43:45.701Z,101939.50
2023-01-25T23:46:14.187Z,101929.38
2023-01-25T23:48:40.917Z,101936.50
2023-01-25T23:51:07.263Z,101930.72
2023-01-25T23:53:33.607Z,101932.13
2023-01-25T23:56:05.906Z,101928.50
2023-01-25T23:58:32.818Z,101930.63
